createdAt,value
2018-12-14T00:02:14.725Z,2.08
2018-12-14T00:04:43.696Z,2.09
2018-12-14T00:07:12.520Z,2.02
2018-12-14T00:09:41.236Z,2.14
2018-12-14T00:12:09.980Z,2.21
2018-12-14T00:14:38.784Z,1.98
2018-12-14T00:17:07.627Z,2.12
2018-12-14T00:19:36.431Z,2.23
2018-12-14T00:22:08.456Z,2.01
2018-12-14T00:24:37.182Z,2.07
2018-12-14T00:27:06.025Z,2.16
2018-12-14T00:29:34.748Z,2.07
2018-12-14T00:32:03.569Z,2.37
2018-12-14T00:34:32.275Z,2.29
2018-12-14T00:37:01.623Z,2.40
2018-12-14T00:39:30.308Z,2.35
2018-12-14T00:41:59.014Z,2.27
2018-12-14T00:44:27.725Z,2.25
2018-12-14T00:46:56.598Z,2.08
2018-12-14T00:49:25.384Z,2.16
2018-12-14T00:51:54.159Z,2.12
2018-12-14T00:54:22.905Z,2.25
2018-12-14T00:56:51.638Z,1.96
2018-12-14T00:59:20.360Z,2.21
2018-12-14T01:01:49.079Z,2.23
2018-12-14T01:04:17.816Z,2.17
2018-12-14T01:06:46.593Z,2.22
2018-12-14T01:09:15.420Z,2.30
2018-12-14T01:11:44.112Z,2.45
2018-12-14T01:14:13.168Z,2.50
2018-12-14T01:16:41.981Z,2.43
2018-12-14T01:19:10.886Z,2.34
2018-12-14T01:21:39.651Z,2.51
2018-12-14T01:24:08.408Z,2.55
2018-12-14T01:26:37.103Z,2.50
2018-12-14T01:29:05.819Z,2.59
2018-12-14T01:31:34.635Z,2.60
2018-12-14T01:34:03.623Z,2.61
2018-12-14T01:36:32.380Z,2.56
2018-12-14T01:39:01.243Z,2.56
2018-12-14T01:41:29.949Z,2.64
2018-12-14T01:43:58.655Z,2.66
2018-12-14T01:46:27.344Z,2.43
2018-12-14T01:48:56.083Z,2.10
2018-12-14T01:51:24.791Z,2.25
2018-12-14T01:53:53.511Z,2.29
2018-12-14T01:56:22.329Z,2.37
2018-12-14T01:58:51.173Z,2.29
2018-12-14T02:01:19.949Z,2.34
2018-12-14T02:03:48.757Z,2.34
2018-12-14T02:06:17.528Z,2.12
2018-12-14T02:08:46.371Z,2.13
2018-12-14T02:11:15.051Z,2.34
2018-12-14T02:13:43.808Z,2.17
2018-12-14T02:16:12.496Z,2.18
2018-12-14T02:18:41.221Z,2.27
2018-12-14T02:21:10.043Z,1.84
2018-12-14T02:23:39.104Z,2.12
2018-12-14T02:26:07.800Z,1.91
2018-12-14T02:28:36.893Z,1.92
2018-12-14T02:31:05.623Z,1.91
2018-12-14T02:33:34.423Z,1.92
2018-12-14T02:36:03.152Z,1.99
2018-12-14T02:38:31.930Z,1.99
2018-12-14T02:41:03.742Z,1.97
2018-12-14T02:43:32.592Z,2.08
2018-12-14T02:46:01.323Z,2.19
2018-12-14T02:48:30.020Z,2.05
2018-12-14T02:50:58.786Z,1.98
2018-12-14T02:53:27.457Z,1.83
2018-12-14T02:55:56.168Z,1.91
2018-12-14T02:58:24.974Z,2.18
2018-12-14T03:00:53.802Z,2.06
2018-12-14T03:03:22.722Z,2.05
2018-12-14T03:05:51.535Z,2.21
2018-12-14T03:08:20.226Z,2.04
2018-12-14T03:10:48.940Z,2.03
2018-12-14T03:13:17.752Z,1.82
2018-12-14T03:15:46.483Z,1.92
2018-12-14T03:18:15.209Z,1.94
2018-12-14T03:20:43.914Z,2.02
2018-12-14T03:23:12.607Z,2.20
2018-12-14T03:25:41.615Z,2.30
2018-12-14T03:28:10.628Z,2.26
2018-12-14T03:30:39.353Z,2.06
2018-12-14T03:33:08.237Z,1.92
2018-12-14T03:35:36.941Z,1.91
2018-12-14T03:38:05.620Z,1.88
2018-12-14T03:40:34.355Z,1.86
2018-12-14T03:43:03.052Z,2.03
2018-12-14T03:45:32.575Z,2.11
2018-12-14T03:48:01.248Z,2.08
2018-12-14T03:50:30.599Z,1.95
2018-12-14T03:52:59.345Z,1.86
2018-12-14T03:55:28.052Z,1.94
2018-12-14T03:57:57.243Z,1.76
2018-12-14T04:00:26.486Z,1.81
2018-12-14T04:02:55.551Z,1.93
2018-12-14T04:05:24.718Z,2.02
2018-12-14T04:07:53.393Z,1.79
2018-12-14T04:10:22.097Z,1.78
2018-12-14T04:12:50.884Z,1.73
2018-12-14T04:15:19.584Z,1.80
2018-12-14T04:17:48.247Z,1.98
2018-12-14T04:20:16.996Z,1.83
2018-12-14T04:22:45.674Z,1.83
2018-12-14T04:25:14.508Z,1.87
2018-12-14T04:27:43.198Z,1.80
2018-12-14T04:30:12.134Z,1.71
2018-12-14T04:32:40.899Z,1.73
2018-12-14T04:35:09.663Z,1.93
2018-12-14T04:37:38.475Z,1.84
2018-12-14T04:40:08.063Z,1.99
2018-12-14T04:42:37.186Z,2.05
2018-12-14T04:45:06.827Z,1.98
2018-12-14T04:47:35.572Z,2.01
2018-12-14T04:50:04.509Z,1.93
2018-12-14T04:52:33.248Z,2.01
2018-12-14T04:55:02.123Z,1.78
2018-12-14T04:57:30.823Z,2.11
2018-12-14T04:59:59.565Z,2.09
2018-12-14T05:02:28.398Z,1.78
2018-12-14T05:04:57.244Z,2.09
2018-12-14T05:07:26.072Z,2.03
2018-12-14T05:09:54.832Z,2.01
2018-12-14T05:12:23.560Z,1.88
2018-12-14T05:14:52.617Z,1.54
2018-12-14T05:17:21.410Z,1.83
2018-12-14T05:19:50.303Z,1.82
2018-12-14T05:22:19.037Z,1.84
2018-12-14T05:24:47.973Z,1.81
2018-12-14T05:27:16.718Z,1.73
2018-12-14T05:29:45.971Z,1.58
2018-12-14T05:32:14.660Z,1.74
2018-12-14T05:34:43.424Z,1.57
2018-12-14T05:37:12.103Z,1.72
2018-12-14T05:39:40.821Z,1.88
2018-12-14T05:42:09.667Z,1.91
2018-12-14T05:44:38.368Z,1.78
2018-12-14T05:47:07.355Z,1.79
2018-12-14T05:49:36.232Z,1.87
2018-12-14T05:52:04.939Z,1.88
2018-12-14T05:54:33.707Z,1.81
2018-12-14T05:57:02.888Z,1.86
2018-12-14T05:59:31.734Z,1.74
2018-12-14T06:02:00.448Z,1.85
2018-12-14T06:04:29.171Z,1.88
2018-12-14T06:06:57.928Z,1.71
2018-12-14T06:09:26.688Z,1.91
2018-12-14T06:11:55.491Z,1.81
2018-12-14T06:14:24.353Z,1.59
2018-12-14T06:16:53.112Z,1.61
2018-12-14T06:19:21.824Z,1.44
2018-12-14T06:21:50.580Z,1.49
2018-12-14T06:24:19.291Z,1.49
2018-12-14T06:26:48.068Z,1.30
2018-12-14T06:29:16.843Z,1.42
2018-12-14T06:31:45.624Z,1.54
2018-12-14T06:34:14.748Z,1.47
2018-12-14T06:36:43.608Z,1.45
2018-12-14T06:39:12.304Z,1.30
2018-12-14T06:41:41.736Z,1.21
2018-12-14T06:44:10.784Z,0.99
2018-12-14T06:46:39.481Z,0.96
2018-12-14T06:49:08.543Z,1.01
2018-12-14T06:51:37.603Z,1.05
2018-12-14T06:54:06.887Z,0.99
2018-12-14T06:56:35.831Z,1.13
2018-12-14T06:59:04.786Z,1.20
2018-12-14T07:01:33.476Z,1.24
2018-12-14T07:04:02.199Z,1.41
2018-12-14T07:06:31.059Z,1.39
2018-12-14T07:08:59.773Z,1.34
2018-12-14T07:11:28.507Z,1.44
2018-12-14T07:13:57.420Z,1.36
2018-12-14T07:16:26.383Z,1.21
2018-12-14T07:18:55.095Z,1.19
2018-12-14T07:21:23.987Z,1.07
2018-12-14T07:23:52.693Z,0.80
2018-12-14T07:26:21.459Z,1.02
2018-12-14T07:28:50.903Z,1.11
2018-12-14T07:31:19.593Z,1.00
2018-12-14T07:33:48.521Z,0.97
2018-12-14T07:36:17.378Z,1.04
2018-12-14T07:38:48.273Z,0.97
2018-12-14T07:41:17.244Z,0.83
2018-12-14T07:43:45.976Z,0.77
2018-12-14T07:46:14.723Z,0.99
2018-12-14T07:48:43.621Z,1.03
2018-12-14T07:51:12.408Z,1.06
2018-12-14T07:53:41.139Z,0.95
2018-12-14T07:56:09.931Z,1.17
2018-12-14T07:58:39.142Z,1.21
2018-12-14T08:01:07.847Z,1.07
2018-12-14T08:03:37.069Z,1.11
2018-12-14T08:06:05.761Z,1.36
2018-12-14T08:08:34.560Z,1.53
2018-12-14T08:11:03.427Z,1.68
2018-12-14T08:13:34.752Z,1.53
2018-12-14T08:16:02.970Z,1.79
2018-12-14T08:18:31.714Z,1.98
2018-12-14T08:21:00.413Z,1.89
2018-12-14T08:23:29.128Z,1.56
2018-12-14T08:25:57.896Z,1.73
2018-12-14T08:28:26.607Z,1.74
2018-12-14T08:30:55.296Z,1.65
2018-12-14T08:33:24.045Z,1.67
2018-12-14T08:35:52.872Z,1.77
2018-12-14T08:38:21.603Z,1.68
2018-12-14T08:40:50.287Z,1.65
2018-12-14T08:43:19.157Z,1.89
2018-12-14T08:45:47.877Z,1.95
2018-12-14T08:48:16.604Z,1.90
2018-12-14T08:50:45.447Z,2.00
2018-12-14T08:53:14.648Z,1.99
2018-12-14T08:55:43.351Z,2.05
2018-12-14T08:58:12.061Z,2.15
2018-12-14T09:00:40.773Z,2.09
2018-12-14T09:03:09.471Z,2.18
2018-12-14T09:05:38.240Z,1.95
2018-12-14T09:08:06.939Z,1.98
2018-12-14T09:10:35.703Z,2.17
2018-12-14T09:13:04.445Z,2.05
2018-12-14T09:15:33.416Z,2.20
2018-12-14T09:18:02.352Z,1.74
2018-12-14T09:20:31.302Z,1.77
2018-12-14T09:23:00.720Z,1.85
2018-12-14T09:25:29.500Z,1.81
2018-12-14T09:27:58.203Z,1.81
2018-12-14T09:30:26.996Z,1.98
2018-12-14T09:32:55.872Z,1.74
2018-12-14T09:35:24.683Z,1.99
2018-12-14T09:37:53.568Z,1.92
2018-12-14T09:40:22.400Z,1.73
2018-12-14T09:42:51.351Z,1.83
2018-12-14T09:45:20.107Z,1.93
2018-12-14T09:47:49.018Z,2.19
2018-12-14T09:50:18.111Z,2.29
2018-12-14T09:52:46.837Z,2.41
2018-12-14T09:55:15.519Z,2.45
2018-12-14T09:57:44.247Z,2.43
2018-12-14T10:00:13.095Z,2.45
2018-12-14T10:02:42.368Z,2.34
2018-12-14T10:05:11.275Z,2.07
2018-12-14T10:07:46.656Z,2.39
2018-12-14T10:10:11.715Z,2.35
2018-12-14T10:12:40.487Z,2.61
2018-12-14T10:15:09.466Z,2.73
2018-12-14T10:17:38.299Z,2.74
2018-12-14T10:20:08.876Z,2.90
2018-12-14T10:22:41.556Z,2.84
2018-12-14T10:25:09.075Z,2.82
2018-12-14T10:27:37.776Z,2.81
2018-12-14T10:30:07.670Z,2.91
2018-12-14T10:32:36.507Z,3.01
2018-12-14T10:35:06.341Z,2.86
2018-12-14T10:37:35.325Z,2.94
2018-12-14T10:40:04.731Z,3.10
2018-12-14T10:42:33.523Z,3.19
2018-12-14T10:45:02.277Z,3.25
2018-12-14T10:47:31.000Z,3.36
2018-12-14T10:49:59.748Z,3.34
2018-12-14T10:52:28.383Z,3.53
2018-12-14T10:54:57.166Z,3.54
2018-12-14T10:57:26.027Z,3.41
2018-12-14T10:59:54.773Z,3.40
2018-12-14T11:02:23.545Z,3.41
2018-12-14T11:04:52.157Z,3.39
2018-12-14T11:07:20.952Z,3.45
2018-12-14T11:09:49.722Z,3.41
2018-12-14T11:12:18.452Z,2.96
2018-12-14T11:14:47.157Z,3.16
2018-12-14T11:17:15.839Z,2.97
2018-12-14T11:19:44.515Z,3.30
2018-12-14T11:22:13.321Z,3.27
2018-12-14T11:24:42.049Z,3.12
2018-12-14T11:27:10.680Z,2.97
2018-12-14T11:29:39.460Z,3.00
2018-12-14T11:32:08.087Z,3.30
2018-12-14T11:34:36.880Z,3.50
2018-12-14T11:37:05.506Z,3.54
2018-12-14T11:39:34.207Z,3.28
2018-12-14T11:42:03.089Z,3.15
2018-12-14T11:44:31.797Z,2.93
2018-12-14T11:47:00.515Z,2.95
2018-12-14T11:49:29.322Z,3.19
2018-12-14T11:51:58.088Z,3.32
2018-12-14T11:54:27.068Z,3.48
2018-12-14T11:56:55.888Z,3.49
2018-12-14T11:59:24.711Z,3.35
2018-12-14T12:01:53.549Z,3.46
2018-12-14T12:04:22.280Z,3.57
2018-12-14T12:06:50.941Z,3.32
2018-12-14T12:09:19.617Z,3.18
2018-12-14T12:11:48.398Z,3.18
2018-12-14T12:14:17.180Z,3.31
2018-12-14T12:16:45.987Z,2.89
2018-12-14T12:19:14.707Z,2.88
2018-12-14T12:21:43.687Z,2.99
2018-12-14T12:24:12.361Z,3.06
2018-12-14T12:26:41.051Z,3.21
2018-12-14T12:29:09.689Z,3.12
2018-12-14T12:31:38.378Z,3.17
2018-12-14T12:34:07.153Z,3.37
2018-12-14T12:36:35.851Z,3.39
2018-12-14T12:39:06.680Z,3.32
2018-12-14T12:41:35.357Z,3.15
2018-12-14T12:44:04.108Z,3.25
2018-12-14T12:46:32.868Z,3.12
2018-12-14T12:49:01.546Z,3.29
2018-12-14T12:51:30.844Z,3.24
2018-12-14T12:54:00.396Z,3.28
2018-12-14T12:56:30.353Z,3.23
2018-12-14T12:58:59.961Z,3.42
2018-12-14T13:01:29.490Z,3.40
2018-12-14T13:03:59.319Z,3.50
2018-12-14T13:06:28.902Z,3.34
2018-12-14T13:08:58.441Z,2.98
2018-12-14T13:11:28.023Z,3.17
2018-12-14T13:13:57.498Z,3.13
2018-12-14T13:16:27.413Z,3.18
2018-12-14T13:18:57.113Z,3.15
2018-12-14T13:21:26.826Z,3.10
2018-12-14T13:23:56.535Z,3.22
2018-12-14T13:26:26.474Z,3.29
2018-12-14T13:29:06.951Z,3.22
2018-12-14T13:31:37.464Z,3.14
2018-12-14T13:34:07.319Z,3.20
2018-12-14T13:36:36.777Z,3.14
2018-12-14T13:39:10.573Z,3.24
2018-12-14T13:41:40.341Z,2.99
2018-12-14T13:44:09.901Z,2.88
2018-12-14T13:46:39.817Z,3.01
2018-12-14T13:49:09.394Z,2.68
2018-12-14T13:51:39.138Z,3.11
2018-12-14T13:54:08.646Z,3.20
2018-12-14T13:56:38.278Z,3.14
2018-12-14T13:59:07.712Z,3.21
2018-12-14T14:01:37.157Z,3.32
2018-12-14T14:04:05.752Z,3.08
2018-12-14T14:06:34.462Z,3.22
2018-12-14T14:09:03.495Z,3.23
2018-12-14T14:11:32.260Z,3.09
2018-12-14T14:14:00.973Z,3.23
2018-12-14T14:16:29.634Z,3.16
2018-12-14T14:18:58.351Z,3.12
2018-12-14T14:21:27.185Z,3.15
2018-12-14T14:23:55.927Z,3.12
2018-12-14T14:26:24.832Z,3.15
2018-12-14T14:28:53.764Z,3.18
2018-12-14T14:31:22.697Z,3.11
2018-12-14T14:33:51.424Z,3.12
2018-12-14T14:36:20.137Z,2.97
2018-12-14T14:38:48.856Z,3.10
2018-12-14T14:41:17.600Z,3.07
2018-12-14T14:43:46.491Z,3.23
2018-12-14T14:46:15.442Z,3.12
2018-12-14T14:48:44.272Z,3.22
2018-12-14T14:51:13.351Z,3.26
2018-12-14T14:53:42.221Z,3.27
2018-12-14T14:56:11.187Z,3.30
2018-12-14T14:58:39.861Z,3.05
2018-12-14T15:01:08.630Z,3.19
2018-12-14T15:03:37.483Z,3.14
2018-12-14T15:06:06.214Z,3.11
2018-12-14T15:08:34.962Z,3.08
2018-12-14T15:11:03.675Z,3.09
2018-12-14T15:13:32.480Z,2.88
2018-12-14T15:16:01.105Z,2.88
2018-12-14T15:18:30.224Z,2.95
2018-12-14T15:20:58.970Z,2.98
2018-12-14T15:23:27.716Z,2.90
2018-12-14T15:25:56.379Z,2.89
2018-12-14T15:28:25.079Z,2.78
2018-12-14T15:30:53.944Z,2.60
2018-12-14T15:33:22.764Z,2.76
2018-12-14T15:35:51.622Z,2.91
2018-12-14T15:38:20.323Z,3.03
2018-12-14T15:40:49.180Z,3.02
2018-12-14T15:43:17.875Z,3.02
2018-12-14T15:45:46.639Z,2.88
2018-12-14T15:48:15.535Z,2.98
2018-12-14T15:50:44.351Z,2.78
2018-12-14T15:53:13.060Z,2.83
2018-12-14T15:55:41.769Z,3.01
2018-12-14T15:58:10.480Z,3.16
2018-12-14T16:00:39.267Z,3.11
2018-12-14T16:03:08.009Z,2.70
2018-12-14T16:05:36.863Z,2.79
2018-12-14T16:08:05.650Z,2.62
2018-12-14T16:10:34.409Z,2.85
2018-12-14T16:13:03.228Z,2.79
2018-12-14T16:15:32.090Z,2.75
2018-12-14T16:18:00.872Z,2.81
2018-12-14T16:20:29.629Z,2.92
2018-12-14T16:22:58.411Z,2.80
2018-12-14T16:25:27.353Z,2.46
2018-12-14T16:27:56.286Z,2.54
2018-12-14T16:30:25.031Z,2.67
2018-12-14T16:32:53.984Z,2.79
2018-12-14T16:35:22.962Z,2.89
2018-12-14T16:37:52.264Z,2.93
2018-12-14T16:40:21.021Z,2.61
2018-12-14T16:42:49.911Z,2.88
2018-12-14T16:45:18.748Z,2.85
2018-12-14T16:47:47.596Z,2.76
2018-12-14T16:50:16.311Z,2.77
2018-12-14T16:52:45.196Z,2.63
2018-12-14T16:55:13.888Z,2.90
2018-12-14T16:57:42.595Z,2.95
2018-12-14T17:00:11.663Z,3.02
2018-12-14T17:02:40.313Z,2.73
2018-12-14T17:05:09.097Z,2.77
2018-12-14T17:07:37.868Z,2.60
2018-12-14T17:10:07.197Z,2.74
2018-12-14T17:12:35.836Z,2.62
2018-12-14T17:15:05.320Z,2.66
2018-12-14T17:17:34.366Z,2.50
2018-12-14T17:20:03.022Z,2.55
2018-12-14T17:22:31.656Z,2.41
2018-12-14T17:25:00.643Z,2.51
2018-12-14T17:27:29.595Z,2.51
2018-12-14T17:29:58.201Z,2.40
2018-12-14T17:32:26.951Z,2.61
2018-12-14T17:34:55.655Z,2.64
2018-12-14T17:37:24.359Z,2.64
2018-12-14T17:39:53.172Z,2.76
2018-12-14T17:42:21.986Z,2.57
2018-12-14T17:44:50.717Z,2.80
2018-12-14T17:47:19.455Z,2.72
2018-12-14T17:49:48.171Z,2.49
2018-12-14T17:52:16.879Z,2.66
2018-12-14T17:54:45.632Z,2.41
2018-12-14T17:57:14.417Z,2.35
2018-12-14T17:59:43.122Z,2.54
2018-12-14T18:02:11.931Z,2.64
2018-12-14T18:04:40.785Z,2.56
2018-12-14T18:07:09.889Z,2.40
2018-12-14T18:09:38.638Z,2.46
2018-12-14T18:12:07.480Z,2.64
2018-12-14T18:14:36.228Z,2.41
2018-12-14T18:17:05.038Z,2.61
2018-12-14T18:19:33.753Z,2.54
2018-12-14T18:22:02.565Z,2.47
2018-12-14T18:24:31.381Z,2.46
2018-12-14T18:27:00.193Z,2.37
2018-12-14T18:29:28.943Z,2.38
2018-12-14T18:31:57.819Z,2.41
2018-12-14T18:34:26.765Z,2.63
2018-12-14T18:36:55.581Z,2.69
2018-12-14T18:39:24.383Z,2.41
2018-12-14T18:41:53.193Z,2.23
2018-12-14T18:44:21.985Z,2.36
2018-12-14T18:46:50.753Z,2.37
2018-12-14T18:49:19.536Z,2.45
2018-12-14T18:51:48.316Z,2.62
2018-12-14T18:54:17.676Z,2.73
2018-12-14T18:56:46.413Z,2.77
2018-12-14T18:59:15.326Z,2.65
2018-12-14T19:01:44.052Z,2.53
2018-12-14T19:04:12.961Z,2.43
2018-12-14T19:06:41.733Z,2.23
2018-12-14T19:09:10.629Z,2.39
2018-12-14T19:11:39.343Z,2.32
2018-12-14T19:14:08.094Z,2.43
2018-12-14T19:16:36.929Z,2.34
2018-12-14T19:19:05.667Z,2.47
2018-12-14T19:21:34.449Z,2.47
2018-12-14T19:24:03.144Z,2.20
2018-12-14T19:26:31.943Z,2.38
2018-12-14T19:29:02.062Z,2.39
2018-12-14T19:31:31.104Z,2.51
2018-12-14T19:33:59.815Z,2.55
2018-12-14T19:36:28.661Z,2.62
2018-12-14T19:38:57.508Z,2.55
2018-12-14T19:41:26.330Z,2.21
2018-12-14T19:43:55.245Z,2.31
2018-12-14T19:46:24.171Z,2.44
2018-12-14T19:48:55.819Z,2.29
2018-12-14T19:51:24.667Z,2.42
2018-12-14T19:53:53.362Z,2.07
2018-12-14T19:56:22.216Z,2.21
2018-12-14T19:58:50.985Z,2.26
2018-12-14T20:01:19.827Z,2.36
2018-12-14T20:03:48.508Z,2.50
2018-12-14T20:06:17.243Z,2.26
2018-12-14T20:08:45.958Z,2.05
2018-12-14T20:11:14.755Z,2.31
2018-12-14T20:13:43.535Z,2.32
2018-12-14T20:16:12.944Z,2.57
2018-12-14T20:18:41.814Z,2.55
2018-12-14T20:21:10.519Z,2.64
2018-12-14T20:23:40.064Z,2.74
2018-12-14T20:26:08.935Z,2.67
2018-12-14T20:28:37.881Z,2.73
2018-12-14T20:31:06.948Z,2.64
2018-12-14T20:33:35.643Z,2.67
2018-12-14T20:36:04.717Z,2.51
2018-12-14T20:38:33.616Z,2.73
2018-12-14T20:41:02.514Z,2.81
2018-12-14T20:43:31.225Z,2.51
2018-12-14T20:46:00.067Z,2.73
2018-12-14T20:48:28.762Z,2.92
2018-12-14T20:50:57.499Z,2.74
2018-12-14T20:53:26.735Z,2.76
2018-12-14T20:55:55.561Z,2.63
2018-12-14T20:58:24.312Z,2.72
2018-12-14T21:00:53.059Z,2.75
2018-12-14T21:03:23.939Z,2.67
2018-12-14T21:05:52.753Z,2.57
2018-12-14T21:08:21.494Z,2.64
2018-12-14T21:10:50.295Z,2.78
2018-12-14T21:13:19.145Z,2.79
2018-12-14T21:15:47.931Z,2.77
2018-12-14T21:18:16.734Z,2.69
2018-12-14T21:20:45.715Z,2.71
2018-12-14T21:23:14.768Z,2.74
2018-12-14T21:25:43.633Z,2.63
2018-12-14T21:28:12.535Z,2.77
2018-12-14T21:30:41.223Z,2.79
2018-12-14T21:33:09.948Z,2.66
2018-12-14T21:35:38.752Z,2.73
2018-12-14T21:38:07.511Z,2.67
2018-12-14T21:40:36.347Z,2.79
2018-12-14T21:43:05.068Z,2.80
2018-12-14T21:45:33.889Z,2.79
2018-12-14T21:48:02.638Z,2.88
2018-12-14T21:50:31.500Z,2.79
2018-12-14T21:53:00.335Z,2.73
2018-12-14T21:55:29.275Z,2.72
2018-12-14T21:57:58.039Z,2.68
2018-12-14T22:00:26.827Z,2.62
2018-12-14T22:02:55.884Z,2.75
2018-12-14T22:05:24.711Z,2.91
2018-12-14T22:07:53.497Z,2.94
2018-12-14T22:10:22.264Z,2.68
2018-12-14T22:12:50.973Z,2.74
2018-12-14T22:15:19.730Z,2.73
2018-12-14T22:17:48.457Z,2.81
2018-12-14T22:20:17.225Z,2.84
2018-12-14T22:22:45.990Z,2.75
2018-12-14T22:25:14.720Z,2.65
2018-12-14T22:27:43.452Z,2.83
2018-12-14T22:30:12.383Z,2.54
2018-12-14T22:32:41.496Z,2.60
2018-12-14T22:35:10.271Z,2.55
2018-12-14T22:37:39.099Z,2.65
2018-12-14T22:40:08.655Z,2.75
2018-12-14T22:42:37.404Z,2.63
2018-12-14T22:45:07.035Z,2.77
2018-12-14T22:47:35.740Z,2.77
2018-12-14T22:50:05.196Z,2.63
2018-12-14T22:52:34.024Z,2.85
2018-12-14T22:55:02.880Z,2.66
2018-12-14T22:57:31.607Z,2.68
2018-12-14T23:00:00.361Z,2.66
2018-12-14T23:02:29.176Z,2.73
2018-12-14T23:04:57.931Z,2.72
2018-12-14T23:07:26.755Z,2.66
2018-12-14T23:09:55.527Z,2.79
2018-12-14T23:12:24.163Z,2.58
2018-12-14T23:14:53.115Z,2.57
2018-12-14T23:17:21.899Z,2.37
2018-12-14T23:19:50.710Z,2.43
2018-12-14T23:22:19.548Z,2.70
2018-12-14T23:24:48.287Z,2.73
2018-12-14T23:27:17.003Z,2.70
2018-12-14T23:29:45.736Z,2.79
2018-12-14T23:32:14.471Z,2.76
2018-12-14T23:34:43.112Z,2.68
2018-12-14T23:37:14.047Z,2.68
2018-12-14T23:39:42.675Z,2.42
2018-12-14T23:42:11.395Z,2.52
2018-12-14T23:44:40.264Z,2.64
2018-12-14T23:47:09.063Z,2.64
2018-12-14T23:49:38.016Z,2.72
2018-12-14T23:52:06.829Z,2.73
2018-12-14T23:54:35.592Z,2.73
2018-12-14T23:57:04.392Z,2.64
2018-12-14T23:59:33.083Z,2.61
